Albion, Idaho
Current Conditions -  °F | °C
As of 12:53 AM on Sunday 26 Oct 2014 (Local Time) from KBYI Reporting Station
Overcast Overcast  
Wind Chill: 57°   Ceiling: 9000
Heat Index: 57°   Visibility: 10mi
Dew Point: 29°   Wind: 8mph
Humidity: 34%   Direction: 270°W
Pressure: 29.93"   Gusts: NA
Location:  42.41°N, 113.58°W
Report Text: KBYI 260653Z AUTO 27007KT 10SM FEW070 OVC090 14/M02 A2993 RMK AO2 RAB22E32 SLP098 P0000 T01391017 402390050
Loading
Personal Weather Stations






























Interactive Weather Map
Tropical Storm Tracking
New forecast layout! Learn more

10-Day Weather Forecast

Advertisements
Track Severe Weather on mobile